createdAt,value
2018-06-21T00:02:09.926Z,16.40
2018-06-21T00:04:38.895Z,16.30
2018-06-21T00:07:08.617Z,16.20
2018-06-21T00:09:36.941Z,16.10
2018-06-21T00:12:05.314Z,16.10
2018-06-21T00:14:33.601Z,16.00
2018-06-21T00:19:30.646Z,15.90
2018-06-21T00:21:58.992Z,15.90
2018-06-21T00:24:27.313Z,15.90
2018-06-21T00:26:57.534Z,15.90
2018-06-21T00:29:25.865Z,15.90
2018-06-21T00:31:55.220Z,15.90
2018-06-21T00:34:24.028Z,15.80
2018-06-21T00:36:53.594Z,15.80
2018-06-21T00:44:18.303Z,15.80
2018-06-21T00:46:46.660Z,15.80
2018-06-21T00:49:14.952Z,15.70
2018-06-21T00:51:43.768Z,15.70
2018-06-21T00:54:12.341Z,15.70
2018-06-21T00:56:40.640Z,15.70
2018-06-21T00:59:09.158Z,15.70
2018-06-21T01:01:37.560Z,15.70
2018-06-21T01:04:05.872Z,15.80
2018-06-21T01:06:34.236Z,15.80
2018-06-21T01:09:03.432Z,15.90
2018-06-21T01:11:31.795Z,16.00
2018-06-21T01:14:00.091Z,16.00
2018-06-21T01:16:28.383Z,16.10
2018-06-21T01:18:57.209Z,16.20
2018-06-21T01:21:26.124Z,16.20
2018-06-21T01:23:54.797Z,16.20
2018-06-21T01:26:23.092Z,16.10
2018-06-21T01:28:51.369Z,16.00
2018-06-21T01:31:19.657Z,15.90
2018-06-21T01:33:47.989Z,15.70
2018-06-21T01:36:16.260Z,15.70
2018-06-21T01:38:44.573Z,15.50
2018-06-21T01:41:12.847Z,15.50
2018-06-21T01:43:41.298Z,15.40
2018-06-21T01:46:09.592Z,15.40
2018-06-21T01:48:37.880Z,15.40
2018-06-21T01:51:06.152Z,15.40
2018-06-21T01:53:34.405Z,15.50
2018-06-21T01:56:02.731Z,15.50
2018-06-21T01:58:31.025Z,15.50
2018-06-21T02:01:00.247Z,15.50
2018-06-21T02:03:28.648Z,15.60
2018-06-21T02:05:56.937Z,15.50
2018-06-21T02:08:25.217Z,15.50
2018-06-21T02:10:53.522Z,15.40
2018-06-21T02:13:21.744Z,15.40
2018-06-21T02:15:50.008Z,15.30
2018-06-21T02:18:18.334Z,15.20
2018-06-21T02:20:46.605Z,15.10
2018-06-21T02:23:15.188Z,15.00
2018-06-21T02:25:43.433Z,14.90
2018-06-21T02:28:11.716Z,14.90
2018-06-21T02:30:39.978Z,14.80
2018-06-21T02:33:08.224Z,14.80
2018-06-21T02:35:36.812Z,14.70
2018-06-21T02:38:05.333Z,14.70
2018-06-21T02:40:33.621Z,14.70
2018-06-21T02:43:01.880Z,14.70
2018-06-21T02:45:30.198Z,14.80
2018-06-21T02:47:58.425Z,14.80
2018-06-21T02:50:27.692Z,14.80
2018-06-21T02:52:55.935Z,14.80
2018-06-21T02:55:24.426Z,14.80
2018-06-21T02:57:52.764Z,14.80
2018-06-21T03:00:21.909Z,14.80
2018-06-21T03:02:50.150Z,14.70
2018-06-21T03:05:19.334Z,14.70
2018-06-21T03:07:48.061Z,14.80
2018-06-21T03:10:16.348Z,14.80
2018-06-21T03:12:45.450Z,14.80
2018-06-21T03:15:13.700Z,14.90
2018-06-21T03:17:41.949Z,14.90
2018-06-21T03:20:10.509Z,14.90
2018-06-21T03:22:39.177Z,14.80
2018-06-21T03:25:07.844Z,14.80
2018-06-21T03:27:36.258Z,14.80
2018-06-21T03:30:04.548Z,14.80
2018-06-21T03:32:32.901Z,14.90
2018-06-21T03:35:01.213Z,14.90
2018-06-21T03:37:29.509Z,14.90
2018-06-21T03:39:59.671Z,15.00
2018-06-21T03:42:27.985Z,15.10
2018-06-21T03:44:56.240Z,15.10
2018-06-21T03:47:24.603Z,15.20
2018-06-21T03:49:53.400Z,15.30
2018-06-21T03:52:21.672Z,15.30
2018-06-21T03:54:49.920Z,15.40
2018-06-21T03:57:18.808Z,15.50
2018-06-21T03:59:47.090Z,15.50
2018-06-21T04:02:16.013Z,15.60
2018-06-21T04:04:44.288Z,15.60
2018-06-21T04:07:12.593Z,15.70
2018-06-21T04:09:40.908Z,15.70
2018-06-21T04:12:09.194Z,15.80
2018-06-21T04:14:37.498Z,15.90
2018-06-21T04:17:05.821Z,16.00
2018-06-21T04:19:34.083Z,16.10
2018-06-21T04:22:02.413Z,16.20
2018-06-21T04:24:30.740Z,16.30
2018-06-21T04:26:59.024Z,16.40
2018-06-21T04:29:27.293Z,16.40
2018-06-21T04:31:55.789Z,16.50
2018-06-21T04:34:25.013Z,16.60
2018-06-21T04:36:53.547Z,16.70
2018-06-21T04:39:21.859Z,16.80
2018-06-21T04:41:50.160Z,17.00
2018-06-21T04:44:18.476Z,17.70
2018-06-21T04:46:46.834Z,19.30
2018-06-21T04:49:15.863Z,20.90
2018-06-21T04:51:44.174Z,22.30
2018-06-21T04:54:12.489Z,23.30
2018-06-21T04:56:40.791Z,24.10
2018-06-21T04:59:09.110Z,24.30
2018-06-21T05:01:37.939Z,24.80
2018-06-21T05:04:06.299Z,25.50
2018-06-21T05:06:34.569Z,26.00
2018-06-21T05:09:02.893Z,26.50
2018-06-21T05:11:31.176Z,26.40
2018-06-21T05:13:59.483Z,26.40
2018-06-21T05:16:27.745Z,26.50
2018-06-21T05:18:56.217Z,26.80
2018-06-21T05:21:24.553Z,27.40
2018-06-21T05:23:52.836Z,27.70
2018-06-21T05:26:21.887Z,28.10
2018-06-21T05:28:50.181Z,28.80
2018-06-21T05:31:18.524Z,29.40
2018-06-21T05:33:46.772Z,29.70
2018-06-21T05:36:14.964Z,30.10
2018-06-21T05:38:43.356Z,30.50
2018-06-21T05:41:11.668Z,30.60
2018-06-21T05:43:39.957Z,30.40
2018-06-21T05:46:08.224Z,30.20
2018-06-21T05:48:36.814Z,30.00
2018-06-21T05:51:05.168Z,29.70
2018-06-21T05:53:33.395Z,29.00
2018-06-21T05:56:01.708Z,28.80
2018-06-21T05:58:29.959Z,28.60
2018-06-21T06:00:58.247Z,28.60
2018-06-21T06:03:27.440Z,28.20
2018-06-21T06:05:55.692Z,27.60
2018-06-21T06:08:23.993Z,27.40
2018-06-21T06:10:52.216Z,27.40
2018-06-21T06:13:20.468Z,27.10
2018-06-21T06:15:48.724Z,26.60
2018-06-21T06:18:17.052Z,27.00
2018-06-21T06:20:45.535Z,27.60
2018-06-21T06:23:13.845Z,27.60
2018-06-21T06:25:42.146Z,28.00
2018-06-21T06:28:11.121Z,27.70
2018-06-21T06:30:39.368Z,27.60
2018-06-21T06:35:35.628Z,28.60
2018-06-21T06:38:04.991Z,29.40
2018-06-21T06:40:33.305Z,28.30
2018-06-21T06:43:01.583Z,28.00
2018-06-21T06:45:30.052Z,28.20
2018-06-21T06:47:58.363Z,27.90
2018-06-21T06:50:26.703Z,27.60
2018-06-21T06:52:55.001Z,27.30
2018-06-21T06:55:23.299Z,27.30
2018-06-21T06:57:51.604Z,27.20
2018-06-21T07:00:19.908Z,26.90
2018-06-21T07:02:48.213Z,27.50
2018-06-21T07:05:16.916Z,27.30
2018-06-21T07:07:45.901Z,27.40
2018-06-21T07:10:14.211Z,27.90
2018-06-21T07:12:42.585Z,28.00
2018-06-21T07:15:10.872Z,27.40
2018-06-21T07:17:39.757Z,27.00
2018-06-21T07:20:08.062Z,27.50
2018-06-21T07:22:36.645Z,27.70
2018-06-21T07:25:05.720Z,27.20
2018-06-21T07:27:34.708Z,27.00
2018-06-21T07:30:03.049Z,27.00
2018-06-21T07:32:31.361Z,27.00
2018-06-21T07:34:59.636Z,26.70
2018-06-21T07:37:28.310Z,25.90
2018-06-21T07:39:56.567Z,25.80
2018-06-21T07:42:24.844Z,26.70
2018-06-21T07:44:53.079Z,27.30
2018-06-21T07:47:21.387Z,28.50
2018-06-21T07:49:49.640Z,29.60
2018-06-21T07:52:17.932Z,30.20
2018-06-21T07:54:46.227Z,30.00
2018-06-21T07:57:14.511Z,30.20
2018-06-21T07:59:42.812Z,30.60
2018-06-21T08:02:11.141Z,30.90
2018-06-21T08:04:39.716Z,30.90
2018-06-21T08:07:08.022Z,30.00
2018-06-21T08:09:36.311Z,29.40
2018-06-21T08:12:04.624Z,28.80
2018-06-21T08:14:32.963Z,28.90
2018-06-21T08:17:01.350Z,29.50
2018-06-21T08:19:29.613Z,29.60
2018-06-21T08:21:58.321Z,29.00
2018-06-21T08:24:26.945Z,28.70
2018-06-21T08:26:55.320Z,28.00
2018-06-21T08:29:23.500Z,27.50
2018-06-21T08:31:51.881Z,27.10
2018-06-21T08:34:20.172Z,27.20
2018-06-21T08:36:48.458Z,27.10
2018-06-21T08:39:17.050Z,26.90
2018-06-21T08:41:45.674Z,26.70
2018-06-21T08:44:14.212Z,26.60
2018-06-21T08:46:42.470Z,26.80
2018-06-21T08:49:10.732Z,27.40
2018-06-21T08:51:39.000Z,28.00
2018-06-21T08:54:07.241Z,28.50
2018-06-21T08:56:35.516Z,28.50
2018-06-21T08:59:03.795Z,28.90
2018-06-21T09:01:32.595Z,29.40
2018-06-21T09:04:00.922Z,29.40
2018-06-21T09:06:29.213Z,29.50
2018-06-21T09:08:57.502Z,29.50
2018-06-21T09:11:26.822Z,29.40
2018-06-21T09:13:55.136Z,29.20
2018-06-21T09:16:24.750Z,29.20
2018-06-21T09:18:53.043Z,28.80
2018-06-21T09:21:21.380Z,28.40
2018-06-21T09:23:49.976Z,27.40
2018-06-21T09:26:18.985Z,27.20
2018-06-21T09:28:47.335Z,27.10
2018-06-21T09:31:15.848Z,27.10
2018-06-21T09:33:44.165Z,27.70
2018-06-21T09:36:12.672Z,27.70
2018-06-21T09:38:46.677Z,28.10
2018-06-21T09:41:21.025Z,28.20
2018-06-21T09:44:03.831Z,28.00
2018-06-21T09:46:33.877Z,28.10
2018-06-21T09:49:08.000Z,28.10
2018-06-21T09:51:36.267Z,27.90
2018-06-21T09:54:05.028Z,28.50
2018-06-21T09:56:33.339Z,28.70
2018-06-21T09:59:01.648Z,29.20
2018-06-21T10:01:29.976Z,29.70
2018-06-21T10:03:58.637Z,30.00
2018-06-21T10:06:27.229Z,29.30
2018-06-21T10:08:55.698Z,28.20
2018-06-21T10:11:27.158Z,26.20
2018-06-21T10:13:55.447Z,24.90
2018-06-21T10:16:23.713Z,23.70
2018-06-21T10:18:53.889Z,23.00
2018-06-21T10:21:22.224Z,22.50
2018-06-21T10:23:50.566Z,22.00
2018-06-21T10:26:18.908Z,21.60
2018-06-21T10:28:47.262Z,21.50
2018-06-21T10:31:15.773Z,21.50
2018-06-21T10:33:44.128Z,21.50
2018-06-21T10:36:12.424Z,21.60
2018-06-21T10:38:40.834Z,21.30
2018-06-21T10:41:09.144Z,21.10
2018-06-21T10:43:37.505Z,20.80
2018-06-21T10:46:06.227Z,20.60
2018-06-21T10:48:34.577Z,20.40
2018-06-21T10:51:03.192Z,20.30
2018-06-21T10:53:32.413Z,20.30
2018-06-21T10:56:00.712Z,20.20
2018-06-21T10:58:29.017Z,20.10
2018-06-21T11:00:57.436Z,20.10
2018-06-21T11:03:25.800Z,20.00
2018-06-21T11:05:54.906Z,20.10
2018-06-21T11:08:23.250Z,20.10
2018-06-21T11:10:51.601Z,20.10
2018-06-21T11:13:21.972Z,20.10
2018-06-21T11:15:50.624Z,19.80
2018-06-21T11:18:18.927Z,19.30
2018-06-21T11:20:47.352Z,19.00
2018-06-21T11:23:16.352Z,19.00
2018-06-21T11:25:45.062Z,19.30
2018-06-21T11:28:13.408Z,20.10
2018-06-21T11:30:41.802Z,21.60
2018-06-21T11:33:10.363Z,22.70
2018-06-21T11:35:39.242Z,23.70
2018-06-21T11:40:35.913Z,24.70
2018-06-21T11:43:04.241Z,25.00
2018-06-21T11:45:32.829Z,25.40
2018-06-21T11:48:02.248Z,25.80
2018-06-21T11:50:30.541Z,26.10
2018-06-21T11:52:59.107Z,26.70
2018-06-21T11:55:27.450Z,27.30
2018-06-21T11:57:55.896Z,27.20
2018-06-21T12:00:24.444Z,26.80
2018-06-21T12:02:52.818Z,26.00
2018-06-21T12:05:21.168Z,25.80
2018-06-21T12:07:49.531Z,25.10
2018-06-21T12:10:18.701Z,24.80
2018-06-21T12:12:47.714Z,24.60
2018-06-21T12:15:16.473Z,24.80
2018-06-21T12:17:44.880Z,25.10
2018-06-21T12:20:13.284Z,25.20
2018-06-21T12:22:41.606Z,25.80
2018-06-21T12:25:09.983Z,26.10
2018-06-21T12:27:38.260Z,26.30
2018-06-21T12:30:06.630Z,26.10
2018-06-21T12:32:34.925Z,25.10
2018-06-21T12:35:03.205Z,25.40
2018-06-21T12:37:31.541Z,25.90
2018-06-21T12:40:00.534Z,26.10
2018-06-21T12:42:28.833Z,26.40
2018-06-21T12:44:57.305Z,26.50
2018-06-21T12:47:25.797Z,26.70
2018-06-21T12:49:54.168Z,26.80
2018-06-21T12:52:22.510Z,26.60
2018-06-21T12:54:50.950Z,26.50
2018-06-21T12:57:19.284Z,26.50
2018-06-21T12:59:47.585Z,26.20
2018-06-21T13:02:15.849Z,25.90
2018-06-21T13:04:44.214Z,25.20
2018-06-21T13:07:12.490Z,24.80
2018-06-21T13:09:52.172Z,25.00
2018-06-21T13:12:33.120Z,25.10
2018-06-21T13:15:01.514Z,24.70
2018-06-21T13:17:30.765Z,24.60
2018-06-21T13:20:00.276Z,24.50
2018-06-21T13:22:28.778Z,24.40
2018-06-21T13:24:57.291Z,24.40
2018-06-21T13:29:53.720Z,24.90
2018-06-21T13:32:22.986Z,24.80
2018-06-21T13:34:51.309Z,25.00
2018-06-21T13:37:19.597Z,24.80
2018-06-21T13:39:47.938Z,24.60
2018-06-21T13:42:16.392Z,24.90
2018-06-21T13:44:45.019Z,25.00
2018-06-21T13:47:14.118Z,25.00
2018-06-21T13:49:42.473Z,24.70
2018-06-21T13:52:10.764Z,24.90
2018-06-21T13:54:39.154Z,25.30
2018-06-21T13:57:07.444Z,25.60
2018-06-21T13:59:36.391Z,25.80
2018-06-21T14:02:05.142Z,26.00
2018-06-21T14:04:33.473Z,25.80
2018-06-21T14:07:01.756Z,25.80
2018-06-21T14:09:30.018Z,26.20
2018-06-21T14:12:00.171Z,26.10
2018-06-21T14:14:28.780Z,25.90
2018-06-21T14:16:57.799Z,25.80
2018-06-21T14:19:26.101Z,26.10
2018-06-21T14:21:54.423Z,26.60
2018-06-21T14:24:22.756Z,26.50
2018-06-21T14:26:51.162Z,26.50
2018-06-21T14:29:20.118Z,26.30
2018-06-21T14:31:48.380Z,25.60
2018-06-21T14:34:16.709Z,24.90
2018-06-21T14:39:13.045Z,25.00
2018-06-21T14:41:42.055Z,25.70
2018-06-21T14:44:10.400Z,26.60
2018-06-21T14:46:38.721Z,26.40
2018-06-21T14:49:07.055Z,26.40
2018-06-21T14:51:35.419Z,26.80
2018-06-21T14:54:03.718Z,26.20
2018-06-21T14:56:32.062Z,25.90
2018-06-21T14:59:00.554Z,26.10
2018-06-21T15:01:28.828Z,26.20
2018-06-21T15:03:57.469Z,26.30
2018-06-21T15:06:25.751Z,26.90
2018-06-21T15:08:54.085Z,26.50
2018-06-21T15:11:22.524Z,26.20
2018-06-21T15:13:52.300Z,26.30
2018-06-21T15:16:22.844Z,26.60
2018-06-21T15:18:51.112Z,26.90
2018-06-21T15:21:19.572Z,27.20
2018-06-21T15:23:48.175Z,27.50
2018-06-21T15:26:16.432Z,26.90
2018-06-21T15:28:44.763Z,26.60
2018-06-21T15:31:13.241Z,26.40
2018-06-21T15:33:41.480Z,26.40
2018-06-21T15:36:09.780Z,26.30
2018-06-21T15:38:38.773Z,26.50
2018-06-21T15:41:07.169Z,26.60
2018-06-21T15:43:35.758Z,26.50
2018-06-21T15:46:04.860Z,26.20
2018-06-21T15:48:33.183Z,26.00
2018-06-21T15:51:01.662Z,26.00
2018-06-21T15:53:30.009Z,25.80
2018-06-21T15:55:58.362Z,25.60
2018-06-21T15:58:26.989Z,26.50
2018-06-21T16:00:55.480Z,26.50
2018-06-21T16:03:24.998Z,26.20
2018-06-21T16:05:53.493Z,25.80
2018-06-21T16:08:21.820Z,25.60
2018-06-21T16:10:50.150Z,25.50
2018-06-21T16:13:18.548Z,25.60
2018-06-21T16:15:48.546Z,25.20
2018-06-21T16:18:17.624Z,25.10
2018-06-21T16:20:45.952Z,24.80
2018-06-21T16:23:14.308Z,24.60
2018-06-21T16:25:45.968Z,24.60
2018-06-21T16:28:14.285Z,24.60
2018-06-21T16:30:44.486Z,24.80
2018-06-21T16:33:12.806Z,24.60
2018-06-21T16:35:41.092Z,24.50
2018-06-21T16:38:09.579Z,24.50
2018-06-21T16:40:37.943Z,24.30
2018-06-21T16:43:06.308Z,24.10
2018-06-21T16:45:34.581Z,23.60
2018-06-21T16:48:02.870Z,23.50
2018-06-21T16:50:33.075Z,23.30
2018-06-21T16:53:01.390Z,23.10
2018-06-21T16:55:29.915Z,23.40
2018-06-21T16:57:58.266Z,23.60
2018-06-21T17:02:54.564Z,22.80
2018-06-21T17:05:22.893Z,23.00
2018-06-21T17:07:51.224Z,23.30
2018-06-21T17:10:19.577Z,23.10
2018-06-21T17:12:47.897Z,22.60
2018-06-21T17:15:16.194Z,22.10
2018-06-21T17:17:44.848Z,21.70
2018-06-21T17:20:13.160Z,21.10
2018-06-21T17:22:41.732Z,20.60
2018-06-21T17:25:10.766Z,20.30
2018-06-21T17:27:39.148Z,20.00
2018-06-21T17:30:07.608Z,20.00
2018-06-21T17:32:36.104Z,19.80
2018-06-21T17:35:04.433Z,19.60
2018-06-21T17:37:32.848Z,19.40
2018-06-21T17:40:01.120Z,19.20
2018-06-21T17:44:58.283Z,18.80
2018-06-21T17:47:27.430Z,18.70
2018-06-21T17:49:55.792Z,18.60
2018-06-21T17:52:24.089Z,18.50
2018-06-21T17:54:52.420Z,18.30
2018-06-21T17:57:20.983Z,18.10
2018-06-21T17:59:49.323Z,18.00
2018-06-21T18:02:17.886Z,18.00
2018-06-21T18:04:46.228Z,18.00
2018-06-21T18:07:15.766Z,17.90
2018-06-21T18:09:44.429Z,17.80
2018-06-21T18:14:40.667Z,17.50
2018-06-21T18:17:09.010Z,17.40
2018-06-21T18:19:37.436Z,17.20
2018-06-21T18:22:05.823Z,17.10
2018-06-21T18:27:02.216Z,17.00
2018-06-21T18:29:30.620Z,16.90
2018-06-21T18:31:58.960Z,16.80
2018-06-21T18:34:27.971Z,16.70
2018-06-21T18:36:56.664Z,16.60
2018-06-21T18:39:24.948Z,16.50
2018-06-21T18:41:53.424Z,16.40
2018-06-21T18:44:21.772Z,16.30
2018-06-21T18:46:50.327Z,16.30
2018-06-21T18:49:18.584Z,16.20
2018-06-21T18:51:46.885Z,16.10
2018-06-21T18:54:16.253Z,16.00
2018-06-21T18:56:44.561Z,15.90
2018-06-21T18:59:12.865Z,15.80
2018-06-21T19:01:41.147Z,15.70
2018-06-21T19:04:09.408Z,15.60
2018-06-21T19:06:43.061Z,15.60
2018-06-21T19:09:16.767Z,15.50
2018-06-21T19:11:50.938Z,15.40
2018-06-21T19:14:19.164Z,15.40
2018-06-21T19:16:47.482Z,15.40
2018-06-21T19:19:15.815Z,15.30
2018-06-21T19:21:44.056Z,15.20
2018-06-21T19:24:12.565Z,15.10
2018-06-21T19:26:40.868Z,15.10
2018-06-21T19:29:09.128Z,15.00
2018-06-21T19:31:38.369Z,15.00
2018-06-21T19:34:06.676Z,14.90
2018-06-21T19:36:35.284Z,14.80
2018-06-21T19:39:05.268Z,14.60
2018-06-21T19:41:33.565Z,14.60
2018-06-21T19:44:01.897Z,14.50
2018-06-21T19:46:30.205Z,14.40
2018-06-21T19:48:58.761Z,14.30
2018-06-21T19:51:27.073Z,14.20
2018-06-21T19:53:55.464Z,14.20
2018-06-21T19:56:24.010Z,14.00
2018-06-21T19:58:52.383Z,14.00
2018-06-21T20:01:20.724Z,14.00
2018-06-21T20:03:49.039Z,13.90
2018-06-21T20:06:17.343Z,13.80
2018-06-21T20:08:45.821Z,13.80
2018-06-21T20:11:19.716Z,13.80
2018-06-21T20:13:50.082Z,13.70
2018-06-21T20:16:19.192Z,13.60
2018-06-21T20:18:47.775Z,13.50
2018-06-21T20:21:17.390Z,13.40
2018-06-21T20:23:47.109Z,13.40
2018-06-21T20:28:43.855Z,13.30
2018-06-21T20:31:13.523Z,13.30
2018-06-21T20:33:43.784Z,13.20
2018-06-21T20:38:41.177Z,13.20
2018-06-21T20:41:09.908Z,13.20
2018-06-21T20:43:38.711Z,13.20
2018-06-21T20:46:07.433Z,13.20
2018-06-21T20:48:35.882Z,13.10
2018-06-21T20:51:04.206Z,13.10
2018-06-21T20:53:32.540Z,13.10
2018-06-21T20:56:00.905Z,12.90
2018-06-21T20:58:29.527Z,12.90
2018-06-21T21:00:59.901Z,12.90
2018-06-21T21:03:28.536Z,12.90
2018-06-21T21:05:57.067Z,12.80
2018-06-21T21:08:25.728Z,12.80
2018-06-21T21:10:54.199Z,12.80
2018-06-21T21:13:22.609Z,12.90
2018-06-21T21:15:51.029Z,12.80
2018-06-21T21:18:19.488Z,12.80
2018-06-21T21:20:47.957Z,12.80
2018-06-21T21:23:16.431Z,12.70
2018-06-21T21:25:44.810Z,12.70
2018-06-21T21:28:13.430Z,12.60
2018-06-21T21:33:10.145Z,12.40
2018-06-21T21:35:38.493Z,12.30
2018-06-21T21:40:35.234Z,12.10
2018-06-21T21:43:03.681Z,12.10
2018-06-21T21:45:32.161Z,12.10
2018-06-21T21:48:01.171Z,12.10
2018-06-21T21:50:29.661Z,12.00
2018-06-21T21:52:58.025Z,12.10
2018-06-21T21:55:26.430Z,12.10
2018-06-21T21:57:55.510Z,12.10
2018-06-21T22:00:58.633Z,12.10
2018-06-21T22:03:27.149Z,12.20
2018-06-21T22:05:55.833Z,12.30
2018-06-21T22:08:24.813Z,12.20
2018-06-21T22:10:53.322Z,12.10
2018-06-21T22:13:21.772Z,12.00
2018-06-21T22:15:50.480Z,12.10
2018-06-21T22:18:19.221Z,12.20
2018-06-21T22:20:47.661Z,12.20
2018-06-21T22:23:16.033Z,12.00
2018-06-21T22:25:44.412Z,12.00
2018-06-21T22:28:12.989Z,11.80
2018-06-21T22:30:43.233Z,11.70
2018-06-21T22:33:11.538Z,11.70
2018-06-21T22:35:40.046Z,11.60
2018-06-21T22:38:08.365Z,11.60
2018-06-21T22:40:36.705Z,11.70
2018-06-21T22:43:05.228Z,11.70
2018-06-21T22:45:33.665Z,11.70
2018-06-21T22:48:02.123Z,11.60
2018-06-21T22:50:31.056Z,11.60
2018-06-21T22:52:59.824Z,11.70
2018-06-21T22:55:28.274Z,11.70
2018-06-21T22:57:56.763Z,11.70
2018-06-21T23:00:25.898Z,11.70
2018-06-21T23:02:54.242Z,11.80
2018-06-21T23:05:24.201Z,11.80
2018-06-21T23:07:52.874Z,11.80
2018-06-21T23:10:21.228Z,11.80
2018-06-21T23:12:49.501Z,11.80
2018-06-21T23:15:17.857Z,11.80
2018-06-21T23:17:46.674Z,11.70
2018-06-21T23:20:14.967Z,11.60
2018-06-21T23:22:43.230Z,11.60
2018-06-21T23:25:11.873Z,11.50
2018-06-21T23:27:40.181Z,11.40
2018-06-21T23:30:08.484Z,11.40
2018-06-21T23:32:36.747Z,11.30
2018-06-21T23:35:05.039Z,11.20
2018-06-21T23:37:33.407Z,11.10
2018-06-21T23:42:29.623Z,11.00
2018-06-21T23:44:57.872Z,10.90
2018-06-21T23:47:26.236Z,10.90
2018-06-21T23:49:54.471Z,10.90
2018-06-21T23:52:22.719Z,10.90
2018-06-21T23:54:50.980Z,10.90
2018-06-21T23:57:19.276Z,11.00
2018-06-21T23:59:47.903Z,11.00
